createdAt,value
2023-01-06T00:01:41.767Z,1.80
2023-01-06T00:04:09.611Z,2.30
2023-01-06T00:06:37.553Z,2.40
2023-01-06T00:09:06.069Z,2.20
2023-01-06T00:11:35.276Z,2.30
2023-01-06T00:14:03.239Z,2.20
2023-01-06T00:16:31.213Z,2.00
2023-01-06T00:19:00.794Z,2.20
2023-01-06T00:21:29.560Z,2.30
2023-01-06T00:23:57.520Z,2.80
2023-01-06T00:26:25.537Z,2.50
2023-01-06T00:28:56.580Z,2.00
2023-01-06T00:31:27.124Z,1.80
2023-01-06T00:33:56.801Z,2.57
2023-01-06T00:36:25.109Z,2.77
2023-01-06T00:38:52.969Z,3.07
2023-01-06T00:41:38.944Z,2.63
2023-01-06T00:44:08.833Z,3.33
2023-01-06T00:46:36.708Z,2.43
2023-01-06T00:49:08.156Z,2.87
2023-01-06T00:51:38.759Z,2.20
2023-01-06T00:54:07.753Z,1.80
2023-01-06T00:56:37.493Z,1.80
2023-01-06T00:59:06.462Z,1.90
2023-01-06T01:01:37.040Z,1.80
2023-01-06T01:04:05.359Z,2.00
2023-01-06T01:06:33.230Z,2.13
2023-01-06T01:09:01.803Z,2.23
2023-01-06T01:11:47.933Z,2.43
2023-01-06T01:14:18.587Z,1.90
2023-01-06T01:16:48.141Z,4.40
2023-01-06T01:19:17.387Z,3.63
2023-01-06T01:21:46.717Z,4.67
2023-01-06T01:24:15.259Z,6.47
2023-01-06T01:26:43.245Z,5.77
2023-01-06T01:29:12.821Z,3.43
2023-01-06T01:31:41.137Z,3.93
2023-01-06T01:34:12.574Z,4.40
2023-01-06T01:36:41.299Z,2.57
2023-01-06T01:39:09.380Z,3.00
2023-01-06T01:41:37.321Z,2.73
2023-01-06T01:44:43.798Z,2.80
2023-01-06T01:47:13.745Z,3.63
2023-01-06T01:49:45.797Z,3.40
2023-01-06T01:52:15.316Z,4.10
2023-01-06T01:54:44.625Z,3.70
2023-01-06T01:57:16.904Z,4.00
2023-01-06T01:59:46.893Z,4.50
2023-01-06T02:02:17.154Z,5.07
2023-01-06T02:04:51.419Z,4.10
2023-01-06T02:07:21.130Z,3.73
2023-01-06T02:09:57.552Z,3.80
2023-01-06T02:12:25.406Z,7.03
2023-01-06T02:14:53.299Z,5.40
2023-01-06T02:17:40.899Z,6.80
2023-01-06T02:20:30.835Z,3.27
2023-01-06T02:23:31.970Z,3.20
2023-01-06T02:26:21.469Z,2.90
2023-01-06T02:29:33.236Z,2.30
2023-01-06T02:32:14.487Z,2.53
2023-01-06T02:34:52.393Z,2.53
2023-01-06T02:37:35.417Z,2.20
2023-01-06T02:40:25.275Z,2.40
2023-01-06T02:43:07.052Z,2.30
2023-01-06T02:45:47.473Z,2.40
2023-01-06T02:48:25.995Z,3.67
2023-01-06T02:51:01.744Z,3.13
2023-01-06T02:53:39.459Z,3.40
2023-01-06T02:56:08.293Z,2.63
2023-01-06T02:58:44.523Z,2.40
2023-01-06T03:01:17.925Z,4.33
2023-01-06T03:03:49.382Z,2.27
2023-01-06T03:06:20.872Z,2.70
2023-01-06T03:08:52.653Z,2.50
2023-01-06T03:11:21.960Z,2.90
2023-01-06T03:13:54.470Z,2.83
2023-01-06T03:16:23.105Z,2.60
2023-01-06T03:18:54.913Z,4.03
2023-01-06T03:21:31.714Z,3.10
2023-01-06T03:23:59.743Z,3.13
2023-01-06T03:26:28.534Z,2.63
2023-01-06T03:28:56.703Z,2.60
2023-01-06T03:31:38.303Z,2.63
2023-01-06T03:34:16.931Z,4.37
2023-01-06T03:36:54.183Z,3.70
2023-01-06T03:39:33.466Z,3.63
2023-01-06T03:42:36.534Z,3.23
2023-01-06T03:45:15.665Z,2.77
2023-01-06T03:47:53.431Z,5.60
2023-01-06T03:50:27.846Z,3.90
2023-01-06T03:53:03.199Z,4.00
2023-01-06T03:55:34.683Z,4.20
2023-01-06T03:58:07.180Z,9.73
2023-01-06T04:00:38.043Z,6.40
2023-01-06T04:03:09.884Z,5.20
2023-01-06T04:05:40.864Z,3.30
2023-01-06T04:08:10.268Z,4.00
2023-01-06T04:10:40.409Z,3.80
2023-01-06T04:13:07.478Z,3.23
2023-01-06T04:15:36.203Z,3.17
2023-01-06T04:18:07.497Z,4.23
2023-01-06T04:20:39.799Z,3.23
2023-01-06T04:23:15.437Z,3.33
2023-01-06T04:25:45.130Z,3.23
2023-01-06T04:28:39.388Z,4.77
2023-01-06T04:31:09.163Z,3.40
2023-01-06T04:33:37.360Z,2.80
2023-01-06T04:36:09.947Z,3.07
2023-01-06T04:38:40.258Z,3.80
2023-01-06T04:41:08.093Z,4.20
2023-01-06T04:43:36.096Z,3.47
2023-01-06T04:46:04.069Z,3.83
2023-01-06T04:48:32.029Z,4.27
2023-01-06T04:51:03.680Z,4.03
2023-01-06T04:53:34.642Z,4.70
2023-01-06T04:56:04.522Z,5.67
2023-01-06T04:58:32.645Z,4.70
2023-01-06T05:01:02.059Z,4.60
2023-01-06T05:03:30.809Z,4.17
2023-01-06T05:06:02.251Z,6.57
2023-01-06T05:08:31.367Z,5.03
2023-01-06T05:11:04.671Z,4.27
2023-01-06T05:13:33.198Z,4.00
2023-01-06T05:16:01.538Z,3.70
2023-01-06T05:18:29.605Z,3.63
2023-01-06T05:20:57.438Z,4.87
2023-01-06T05:23:25.370Z,5.17
2023-01-06T05:25:55.060Z,9.50
2023-01-06T05:28:24.290Z,4.70
2023-01-06T05:30:53.946Z,9.93
2023-01-06T05:33:21.801Z,5.57
2023-01-06T05:35:49.745Z,4.67
2023-01-06T05:38:17.538Z,3.97
2023-01-06T05:40:45.369Z,7.17
2023-01-06T05:43:13.234Z,7.83
2023-01-06T05:45:42.496Z,4.40
2023-01-06T05:48:10.293Z,4.23
2023-01-06T05:50:38.142Z,4.00
2023-01-06T05:53:06.045Z,5.40
2023-01-06T05:55:33.913Z,4.67
2023-01-06T05:58:01.948Z,4.07
2023-01-06T06:00:29.837Z,5.70
2023-01-06T06:02:59.029Z,4.53
2023-01-06T06:05:27.018Z,7.63
2023-01-06T06:07:55.348Z,4.27
2023-01-06T06:10:23.417Z,5.20
2023-01-06T06:12:52.314Z,4.00
2023-01-06T06:15:20.853Z,5.07
2023-01-06T06:17:48.673Z,5.30
2023-01-06T06:20:18.292Z,5.30
2023-01-06T06:22:46.168Z,5.23
2023-01-06T06:25:14.197Z,7.40
2023-01-06T06:27:42.099Z,6.53
2023-01-06T06:30:10.611Z,6.57
2023-01-06T06:32:38.763Z,3.87
2023-01-06T06:35:08.251Z,3.90
2023-01-06T06:37:37.457Z,8.10
2023-01-06T06:40:06.461Z,6.53
2023-01-06T06:42:34.314Z,4.40
2023-01-06T06:45:02.159Z,5.10
2023-01-06T06:47:30.095Z,4.80
2023-01-06T06:49:58.688Z,7.73
2023-01-06T06:52:26.484Z,4.70
2023-01-06T06:54:55.682Z,4.80
2023-01-06T06:57:23.491Z,5.53
2023-01-06T06:59:51.351Z,14.40
2023-01-06T07:02:19.357Z,6.53
2023-01-06T07:04:47.280Z,5.60
2023-01-06T07:07:15.185Z,4.97
2023-01-06T07:09:43.083Z,4.37
2023-01-06T07:12:12.368Z,5.30
2023-01-06T07:14:40.153Z,7.40
2023-01-06T07:17:07.938Z,4.93
2023-01-06T07:19:35.871Z,4.80
2023-01-06T07:22:03.783Z,4.73
2023-01-06T07:24:31.705Z,4.10
2023-01-06T07:26:59.519Z,3.80
2023-01-06T07:29:28.880Z,4.47
2023-01-06T07:31:56.774Z,4.30
2023-01-06T07:34:24.672Z,4.70
2023-01-06T07:36:52.565Z,6.43
2023-01-06T07:39:20.373Z,6.73
2023-01-06T07:41:48.461Z,8.13
2023-01-06T07:44:18.032Z,4.90
2023-01-06T07:46:47.308Z,5.83
2023-01-06T07:49:15.116Z,5.63
2023-01-06T07:51:43.030Z,5.13
2023-01-06T07:54:11.349Z,4.73
2023-01-06T07:56:39.426Z,4.87
2023-01-06T07:59:07.543Z,5.20
2023-01-06T08:01:35.553Z,6.10
2023-01-06T08:04:05.115Z,5.60
2023-01-06T08:06:33.308Z,5.17
2023-01-06T08:09:02.843Z,7.00
2023-01-06T08:11:35.257Z,9.90
2023-01-06T08:14:03.168Z,6.23
2023-01-06T08:16:31.113Z,5.70
2023-01-06T08:18:58.986Z,6.17
2023-01-06T08:21:28.261Z,6.50
2023-01-06T08:23:56.119Z,9.50
2023-01-06T08:26:24.200Z,9.80
2023-01-06T08:28:53.541Z,10.10
2023-01-06T08:31:22.818Z,11.57
2023-01-06T08:33:51.707Z,12.73
2023-01-06T08:36:22.053Z,12.10
2023-01-06T08:38:51.449Z,12.13
2023-01-06T08:41:19.411Z,6.13
2023-01-06T08:43:48.298Z,6.17
2023-01-06T08:46:18.426Z,6.70
2023-01-06T08:48:47.071Z,5.30
2023-01-06T08:51:17.188Z,6.87
2023-01-06T08:53:45.638Z,5.30
2023-01-06T08:56:16.066Z,6.17
2023-01-06T08:58:43.951Z,5.30
2023-01-06T09:01:18.914Z,6.73
2023-01-06T09:03:47.003Z,6.00
2023-01-06T09:06:15.899Z,5.20
2023-01-06T09:08:44.056Z,6.20
2023-01-06T09:11:12.623Z,6.00
2023-01-06T09:13:42.011Z,6.40
2023-01-06T09:16:11.379Z,11.13
2023-01-06T09:18:39.392Z,6.40
2023-01-06T09:21:07.239Z,6.03
2023-01-06T09:23:35.183Z,7.17
2023-01-06T09:26:03.051Z,8.63
2023-01-06T09:28:30.859Z,8.97
2023-01-06T09:31:00.127Z,9.13
2023-01-06T09:33:28.169Z,8.90
2023-01-06T09:35:56.399Z,9.23
2023-01-06T09:38:24.284Z,6.33
2023-01-06T09:41:12.176Z,7.53
2023-01-06T09:43:47.838Z,6.90
2023-01-06T09:46:21.168Z,6.87
2023-01-06T09:48:59.776Z,18.37
2023-01-06T09:51:30.427Z,24.27
2023-01-06T09:54:06.449Z,9.47
2023-01-06T09:56:34.515Z,6.43
2023-01-06T09:59:09.742Z,5.90
2023-01-06T10:01:43.549Z,5.90
2023-01-06T10:04:18.027Z,5.93
2023-01-06T10:06:54.050Z,5.60
2023-01-06T10:09:30.822Z,6.83
2023-01-06T10:12:08.864Z,6.10
2023-01-06T10:14:47.369Z,7.77
2023-01-06T10:17:38.485Z,5.80
2023-01-06T10:20:31.994Z,8.07
2023-01-06T10:23:12.167Z,7.73
2023-01-06T10:25:46.297Z,7.63
2023-01-06T10:28:20.677Z,9.73
2023-01-06T10:30:50.380Z,7.10
2023-01-06T10:35:55.908Z,6.03
2023-01-06T10:38:28.212Z,5.90
2023-01-06T10:40:57.890Z,7.93
2023-01-06T10:43:25.835Z,24.83
2023-01-06T10:45:54.371Z,11.03
2023-01-06T10:48:28.053Z,8.70
2023-01-06T10:50:57.157Z,8.47
2023-01-06T10:53:26.165Z,9.77
2023-01-06T10:55:55.638Z,7.70
2023-01-06T10:58:36.558Z,5.67
2023-01-06T11:01:10.535Z,6.00
2023-01-06T11:03:42.612Z,6.33
2023-01-06T11:06:17.157Z,7.30
2023-01-06T11:08:46.028Z,7.10
2023-01-06T11:11:27.642Z,7.30
2023-01-06T11:13:58.393Z,6.73
2023-01-06T11:16:28.947Z,6.90
2023-01-06T11:19:01.587Z,9.43
2023-01-06T11:21:39.772Z,6.53
2023-01-06T11:24:18.813Z,6.23
2023-01-06T11:26:51.055Z,7.30
2023-01-06T11:29:24.716Z,6.37
2023-01-06T11:31:52.930Z,17.00
2023-01-06T11:34:29.002Z,4.97
2023-01-06T11:36:57.862Z,5.77
2023-01-06T11:39:29.256Z,7.23
2023-01-06T11:42:03.145Z,8.73
2023-01-06T11:44:33.495Z,5.40
2023-01-06T11:47:05.028Z,6.60
2023-01-06T11:49:38.631Z,5.20
2023-01-06T11:52:08.951Z,5.97
2023-01-06T11:54:39.406Z,5.87
2023-01-06T11:57:21.693Z,5.13
2023-01-06T12:00:13.353Z,4.80
2023-01-06T12:02:49.675Z,7.40
2023-01-06T12:05:23.957Z,7.67
2023-01-06T12:07:55.450Z,6.23
2023-01-06T12:10:29.216Z,7.10
2023-01-06T12:12:57.250Z,5.50
2023-01-06T12:15:28.601Z,8.07
2023-01-06T12:18:02.466Z,8.30
2023-01-06T12:20:34.472Z,6.50
2023-01-06T12:23:04.927Z,5.63
2023-01-06T12:25:36.628Z,6.80
2023-01-06T12:28:07.124Z,9.70
2023-01-06T12:30:41.996Z,6.67
2023-01-06T12:33:17.446Z,8.57
2023-01-06T12:35:51.126Z,5.40
2023-01-06T12:38:32.405Z,5.77
2023-01-06T12:41:06.472Z,5.20
2023-01-06T12:43:38.484Z,4.17
2023-01-06T12:46:12.328Z,6.20
2023-01-06T12:48:44.678Z,6.37
2023-01-06T12:51:18.204Z,8.53
2023-01-06T12:53:56.163Z,5.30
2023-01-06T12:56:37.638Z,6.00
2023-01-06T12:59:17.653Z,5.17
2023-01-06T13:01:52.022Z,5.63
2023-01-06T13:04:49.330Z,5.20
2023-01-06T13:07:33.006Z,5.57
2023-01-06T13:10:11.028Z,5.30
2023-01-06T13:13:20.683Z,7.07
2023-01-06T13:15:48.599Z,5.83
2023-01-06T13:18:24.713Z,6.23
2023-01-06T13:20:57.223Z,8.07
2023-01-06T13:23:46.744Z,7.30
2023-01-06T13:26:38.442Z,9.93
2023-01-06T13:29:18.406Z,10.20
2023-01-06T13:32:02.885Z,70.93
2023-01-06T13:35:03.635Z,34.77
2023-01-06T13:37:37.684Z,9.77
2023-01-06T13:40:12.649Z,9.33
2023-01-06T13:42:44.547Z,7.10
2023-01-06T13:45:17.361Z,5.77
2023-01-06T13:47:47.077Z,4.63
2023-01-06T13:50:18.354Z,7.30
2023-01-06T13:52:46.446Z,12.13
2023-01-06T13:55:30.082Z,10.13
2023-01-06T13:57:59.025Z,47.53
2023-01-06T14:00:29.175Z,20.73
2023-01-06T14:03:25.812Z,22.17
2023-01-06T14:05:56.075Z,9.97
2023-01-06T14:08:27.690Z,6.10
2023-01-06T14:11:03.167Z,7.93
2023-01-06T14:13:35.499Z,5.67
2023-01-06T14:16:07.031Z,4.80
2023-01-06T14:18:40.912Z,5.23
2023-01-06T14:21:23.157Z,6.23
2023-01-06T14:23:54.633Z,4.90
2023-01-06T14:26:47.803Z,6.40
2023-01-06T14:30:07.528Z,6.00
2023-01-06T14:33:02.110Z,16.80
2023-01-06T14:35:34.075Z,9.87
2023-01-06T14:38:05.694Z,8.33
2023-01-06T14:40:37.441Z,9.60
2023-01-06T14:43:27.915Z,16.27
2023-01-06T14:45:57.186Z,21.83
2023-01-06T14:48:29.805Z,12.93
2023-01-06T14:50:58.960Z,10.07
2023-01-06T14:53:32.953Z,7.47
2023-01-06T14:56:01.644Z,9.47
2023-01-06T14:58:32.623Z,7.87
2023-01-06T15:01:03.059Z,7.03
2023-01-06T15:03:33.049Z,7.37
2023-01-06T15:06:12.417Z,11.07
2023-01-06T15:08:40.347Z,10.27
2023-01-06T15:11:22.475Z,8.70
2023-01-06T15:13:51.929Z,11.77
2023-01-06T15:16:27.650Z,8.77
2023-01-06T15:18:55.755Z,8.60
2023-01-06T15:21:25.051Z,7.40
2023-01-06T15:23:55.258Z,7.50
2023-01-06T15:26:27.087Z,11.63
2023-01-06T15:29:02.198Z,10.03
2023-01-06T15:31:33.790Z,6.93
2023-01-06T15:34:04.426Z,14.17
2023-01-06T15:36:36.178Z,20.47
2023-01-06T15:39:06.145Z,35.30
2023-01-06T15:41:34.608Z,40.03
2023-01-06T15:44:20.855Z,24.93
2023-01-06T15:46:50.494Z,11.47
2023-01-06T15:49:26.307Z,11.10
2023-01-06T15:51:58.256Z,10.93
2023-01-06T15:54:28.295Z,11.07
2023-01-06T15:56:58.620Z,9.33
2023-01-06T15:59:30.071Z,8.93
2023-01-06T16:01:58.229Z,9.60
2023-01-06T16:04:26.365Z,11.80
2023-01-06T16:06:54.472Z,10.83
2023-01-06T16:09:37.735Z,10.93
2023-01-06T16:12:17.239Z,8.87
2023-01-06T16:14:49.111Z,16.60
2023-01-06T16:17:28.121Z,9.27
2023-01-06T16:20:00.815Z,9.70
2023-01-06T16:22:35.974Z,9.93
2023-01-06T16:25:08.290Z,9.23
2023-01-06T16:27:36.367Z,9.30
2023-01-06T16:30:11.854Z,7.37
2023-01-06T16:32:41.619Z,10.33
2023-01-06T16:35:13.016Z,10.33
2023-01-06T16:37:41.089Z,9.57
2023-01-06T16:40:10.221Z,9.17
2023-01-06T16:42:43.350Z,8.70
2023-01-06T16:45:20.035Z,10.27
2023-01-06T16:47:47.966Z,10.07
2023-01-06T16:50:19.038Z,9.40
2023-01-06T16:52:49.823Z,11.63
2023-01-06T16:55:20.976Z,10.97
2023-01-06T16:57:50.858Z,11.87
2023-01-06T17:00:22.859Z,11.17
2023-01-06T17:02:52.551Z,11.97
2023-01-06T17:05:26.516Z,11.07
2023-01-06T17:07:58.364Z,9.30
2023-01-06T17:10:26.743Z,14.03
2023-01-06T17:13:14.707Z,11.13
2023-01-06T17:15:44.454Z,11.20
2023-01-06T17:18:24.563Z,12.63
2023-01-06T17:20:55.749Z,15.53
2023-01-06T17:23:24.715Z,13.57
2023-01-06T17:26:01.448Z,10.93
2023-01-06T17:28:32.051Z,21.73
2023-01-06T17:31:01.851Z,21.53
2023-01-06T17:33:30.737Z,17.00
2023-01-06T17:35:59.816Z,15.30
2023-01-06T17:38:27.705Z,11.30
2023-01-06T17:40:56.775Z,11.70
2023-01-06T17:43:30.637Z,11.20
2023-01-06T17:45:59.172Z,12.40
2023-01-06T17:48:28.498Z,14.00
2023-01-06T17:50:58.429Z,12.50
2023-01-06T17:53:47.816Z,16.40
2023-01-06T17:56:16.007Z,12.60
2023-01-06T17:58:45.305Z,10.73
2023-01-06T18:01:17.516Z,12.50
2023-01-06T18:03:47.820Z,10.70
2023-01-06T18:06:22.753Z,12.77
2023-01-06T18:08:51.412Z,11.37
2023-01-06T18:11:25.860Z,13.87
2023-01-06T18:13:54.728Z,11.33
2023-01-06T18:16:28.374Z,16.10
2023-01-06T18:19:05.552Z,13.47
2023-01-06T18:21:37.394Z,14.13
2023-01-06T18:24:17.984Z,15.03
2023-01-06T18:26:51.605Z,15.60
2023-01-06T18:29:23.398Z,15.27
2023-01-06T18:31:53.600Z,18.37
2023-01-06T18:34:29.230Z,18.97
2023-01-06T18:36:58.860Z,17.47
2023-01-06T18:39:29.102Z,19.73
2023-01-06T18:42:16.545Z,15.23
2023-01-06T18:44:44.620Z,13.80
2023-01-06T18:47:17.406Z,25.03
2023-01-06T18:49:47.306Z,26.20
2023-01-06T18:52:33.168Z,22.60
2023-01-06T18:55:01.694Z,21.43
2023-01-06T18:57:32.436Z,18.33
2023-01-06T19:00:13.208Z,15.67
2023-01-06T19:02:41.012Z,17.20
2023-01-06T19:05:13.089Z,21.07
2023-01-06T19:07:40.993Z,23.33
2023-01-06T19:10:24.817Z,21.00
2023-01-06T19:12:56.319Z,19.23
2023-01-06T19:15:26.096Z,18.10
2023-01-06T19:17:55.586Z,23.63
2023-01-06T19:20:28.772Z,22.67
2023-01-06T19:22:57.419Z,28.67
2023-01-06T19:25:33.094Z,73.60
2023-01-06T19:28:03.749Z,23.87
2023-01-06T19:30:54.476Z,27.40
2023-01-06T19:33:42.467Z,26.17
2023-01-06T19:36:42.698Z,25.50
2023-01-06T19:39:27.105Z,31.30
2023-01-06T19:41:59.182Z,51.33
2023-01-06T19:44:33.049Z,38.80
2023-01-06T19:47:02.404Z,27.53
2023-01-06T19:49:38.987Z,23.10
2023-01-06T19:52:28.814Z,22.77
2023-01-06T19:55:03.105Z,18.30
2023-01-06T19:57:37.944Z,19.00
2023-01-06T20:00:24.148Z,20.90
2023-01-06T20:02:53.783Z,23.17
2023-01-06T20:05:21.743Z,21.67
2023-01-06T20:07:51.007Z,23.43
2023-01-06T20:10:18.862Z,21.50
2023-01-06T20:12:46.682Z,22.33
2023-01-06T20:15:14.503Z,20.80
2023-01-06T20:17:42.488Z,24.77
2023-01-06T20:20:10.930Z,35.77
2023-01-06T20:22:38.888Z,22.60
2023-01-06T20:25:09.033Z,19.20
2023-01-06T20:27:37.186Z,20.77
2023-01-06T20:30:05.830Z,20.53
2023-01-06T20:32:33.645Z,21.30
2023-01-06T20:35:01.609Z,18.13
2023-01-06T20:37:29.450Z,19.73
2023-01-06T20:39:57.275Z,19.43
2023-01-06T20:42:26.538Z,22.00
2023-01-06T20:44:54.400Z,22.57
2023-01-06T20:47:22.322Z,21.37
2023-01-06T20:49:50.224Z,21.50
2023-01-06T20:52:18.163Z,21.20
2023-01-06T20:54:46.022Z,27.43
2023-01-06T20:57:13.845Z,25.50
2023-01-06T20:59:43.011Z,23.80
2023-01-06T21:02:11.039Z,23.93
2023-01-06T21:04:39.025Z,22.60
2023-01-06T21:07:07.350Z,19.13
2023-01-06T21:09:35.262Z,18.30
2023-01-06T21:12:03.153Z,23.13
2023-01-06T21:14:32.237Z,24.17
2023-01-06T21:17:01.514Z,42.67
2023-01-06T21:19:29.366Z,31.90
2023-01-06T21:21:57.353Z,24.30
2023-01-06T21:24:25.370Z,25.70
2023-01-06T21:26:53.525Z,24.60
2023-01-06T21:29:21.763Z,21.70
2023-01-06T21:31:49.594Z,22.47
2023-01-06T21:34:18.884Z,27.70
2023-01-06T21:36:46.842Z,26.80
2023-01-06T21:39:15.173Z,28.20
2023-01-06T21:42:00.864Z,27.10
2023-01-06T21:44:28.845Z,29.63
2023-01-06T21:46:58.347Z,29.30
2023-01-06T21:49:27.859Z,30.63
2023-01-06T21:51:56.231Z,27.10
2023-01-06T21:54:24.446Z,27.67
2023-01-06T21:56:52.392Z,29.77
2023-01-06T21:59:20.315Z,23.13
2023-01-06T22:01:48.541Z,23.93
2023-01-06T22:04:16.494Z,24.53
2023-01-06T22:06:46.884Z,28.17
2023-01-06T22:09:16.877Z,25.70
2023-01-06T22:11:45.413Z,28.40
2023-01-06T22:14:14.803Z,31.60
2023-01-06T22:16:43.233Z,32.17
2023-01-06T22:19:13.178Z,29.73
2023-01-06T22:21:42.580Z,28.30
2023-01-06T22:24:14.396Z,27.07
2023-01-06T22:26:42.222Z,27.40
2023-01-06T22:29:10.088Z,29.60
2023-01-06T22:31:38.532Z,29.47
2023-01-06T22:34:08.054Z,28.17
2023-01-06T22:36:36.246Z,33.47
2023-01-06T22:39:04.553Z,29.80
2023-01-06T22:41:33.782Z,30.57
2023-01-06T22:44:01.615Z,35.70
2023-01-06T22:46:30.198Z,34.70
2023-01-06T22:48:58.172Z,32.90
2023-01-06T22:51:27.351Z,31.70
2023-01-06T22:53:55.496Z,32.27
2023-01-06T22:56:23.335Z,31.33
2023-01-06T22:58:52.666Z,31.23
2023-01-06T23:01:20.613Z,30.70
2023-01-06T23:03:48.445Z,31.30
2023-01-06T23:06:17.456Z,35.37
2023-01-06T23:08:58.884Z,30.97
2023-01-06T23:11:28.461Z,30.40
2023-01-06T23:13:58.775Z,28.40
2023-01-06T23:16:29.879Z,26.00
2023-01-06T23:18:58.276Z,29.97
2023-01-06T23:21:27.648Z,20.80
2023-01-06T23:23:56.608Z,27.23
2023-01-06T23:26:27.255Z,25.67
2023-01-06T23:28:57.449Z,26.67
2023-01-06T23:31:27.754Z,25.00
2023-01-06T23:33:57.197Z,27.77
2023-01-06T23:36:27.467Z,29.80
2023-01-06T23:38:56.510Z,28.23
2023-01-06T23:41:26.799Z,23.30
2023-01-06T23:43:57.233Z,24.87
2023-01-06T23:46:27.297Z,26.73
2023-01-06T23:48:56.416Z,25.47
2023-01-06T23:51:25.465Z,25.10
2023-01-06T23:53:53.863Z,25.27
2023-01-06T23:56:23.394Z,25.77
2023-01-06T23:58:54.348Z,26.30
